This is the latest recevied weather packets stored in our database for station/object N3WR. If no packets are shown the sender has not sent any weather packets the latest 1 day(s).
| Time | Temp. | Humidity | Pressure | Rain* | Wind** | Luminosity | Snow |
|---|---|---|---|---|---|---|---|
| 1777985098 | 16.67° C | 78% | 1010.6 hPa | 0 mm | 1.79 m/s, 208° | - | - |
| 1777984198 | 15.56° C | 82% | 1010.3 hPa | 0 mm | 0.89 m/s, 174° | - | - |
| 1777983300 | 14.44° C | 83% | 1010.3 hPa | 0 mm | 0.89 m/s, 259° | - | - |
| 1777982399 | 13.33° C | 87% | 1010.3 hPa | 0 mm | 0.45 m/s, 224° | - | - |
| 1777981498 | 12.22° C | 90% | 1010.3 hPa | 0 mm | 0 m/s | - | - |
| 1777980598 | 11.67° C | 91% | 1010.2 hPa | 0 mm | 0 m/s | - | - |
| 1777979698 | 11.67° C | 90% | 1010.1 hPa | 0 mm | 0 m/s | - | - |
| 1777978802 | 11.11° C | 90% | 1009.9 hPa | 0 mm | 0 m/s | - | - |
| 1777977897 | 11.11° C | 89% | 1009.9 hPa | 0 mm | 0.45 m/s, 177° | - | - |
| 1777976998 | 11.11° C | 90% | 1009.8 hPa | 0 mm | 0 m/s | - | - |
| 1777976098 | 11.11° C | 89% | 1009.8 hPa | 0 mm | 0.45 m/s, 45° | - | - |
| 1777975200 | 11.67° C | 88% | 1009.7 hPa | 0 mm | 0.89 m/s, 46° | - | - |
| 1777974297 | 11.67° C | 88% | 1009.5 hPa | 0 mm | 0 m/s | - | - |
| 1777973401 | 12.22° C | 86% | 1009.4 hPa | 0 mm | 0.45 m/s, 38° | - | - |
| 1777972498 | 12.22° C | 86% | 1009.4 hPa | 0 mm | 0.45 m/s, 38° | - | - |
| 1777971603 | 12.78° C | 84% | 1009.4 hPa | 0.51 mm | 0.89 m/s, 136° | - | - |
| 1777970700 | 13.33° C | 82% | 1009.5 hPa | 0.51 mm | 0.45 m/s, 115° | - | - |
| 1777969798 | 13.33° C | 79% | 1009.6 hPa | 0.51 mm | 0.45 m/s, 157° | - | - |
| 1777968898 | 14.44° C | 76% | 1009.6 hPa | 0.51 mm | 0.89 m/s, 314° | - | - |
| 1777967998 | 15° C | 73% | 1009.6 hPa | 0 mm | 1.34 m/s, 225° | - | - |
| 1777967097 | 15° C | 72% | 1009.4 hPa | 0 mm | 1.79 m/s, 244° | - | - |
| 1777966197 | 15.56° C | 69% | 1009.2 hPa | 0 mm | 1.34 m/s, 293° | - | - |
* Rain latest hour (hover to see other rain measurements)
** Current wind speed in m/s (hover to see current wind gust speed)